Skip Navigation LinksHome page > Weather > Current weather Skip Navigation Links

Current Weather

Ronald Reagan Washington National, Washington

For information only: do not use for flight planning or navigation.
Latest weather
Observation time Friday, October 20, 2017 12:52 AM EDT
Local time Friday, October 20, 2017 1:00 AM EDT
Flight conditions Visual Meteorological Conditions
Winds
Wind direction South-Southwest (210°)
Wind speed 5 mph
Visibility 10 mi.
Sky condition
Ceiling unlimited
Sky clear
Temperature 59°F
Dewpoint 51°F
Altimeter 30.18 in.Hg
Derived measurements
Relative humidity 75%
Density altitude -100 ft.
Sea-level pressure 30.17 in.Hg
Climate data
Temperature minimum, last 24 hours 49°F
Temperature maximum, last 24 hours 72°F
Remarks
Automated weather observing station with precipitation discriminator.
METAR KDCA 200452Z 21004KT 10SM CLR 15/11 A3018 RMK AO2 SLP217 T01500106 402220094

Settings

Location code

InnerDrive.Weather 4.0.6144.1 Release CLR 4.0.30319.36366
Copyright ©2015 Inner Drive Technology. All rights reserved. Portions Copyright ©1986-2015 David Braverman.

Find weather

Site navigation


Skip Navigation Links

Place info

Page info

PayPal - The safer, easier way to pay online!

Return home.

Copyright ©2017 Inner Drive Technology. Purveyors of fine, hand-crafted computer software. Page printed 2017-10-20T05:00:05 UTC.